Airfield :







YOU CAN JOIN US ON...

 
LOGIN :

Register | Disclaimer

   EN    FR    IT 

 









Legend :    VFR   Marginal VFR   IFR   Intensive IFR   Very Intensive IFR
Visi :
Ceiling :
>= 8 km
>= 3000ft
5 to 8 km
1000 to 3000 ft
1500m to 5 km
500 to 1000 ft
800 to 1500m
200 to 500 ft
< 800m
< 200 ft
Symbols :   Thunderstorms  Fog  Heavy snow  Heavy precipitations  Wind > 20 kt







- Airport Elevation : 335 ft
- IATA code : BTV


KBTV - Burlington International

CURRENT METAR :
  • 191854Z 22003KT 10SM FEW150 21/M01 A3028 RMK AO2 SLP255 T02111006

EXPIRED METARs :
  • 191754Z 18007KT 10SM FEW200 SCT250 21/00 A3030 RMK AO2 SLP260 T02060000 10206 20067 58015
  • 191654Z VRB05KT 10SM FEW200 SCT250 19/05 A3031 RMK AO2 SLP266 T01890050

TAF KBTV
Valid from the 19 at 18:00 until the 20 at 18:00 UTC


191720Z 1918/2018 19007KT P6SM SKC
FM200000 VRB03KT P6SM SKC
FM201400 20005KT P6SM FEW250
No reported NOTAMs for that airfield.



MET'MAP, your aeronautical weather chart ! - Copyright ORBIFLY December 2007 - Disclaimer

ORBIFLY MET'MAP TEAM :

Programming & Development : Alexandra Zaïnal
Concept & Development : Baudouin d'Aumeries
Co-Development & Prog : Marc-Olivier Méhu
Technical & hardware support : Manuel Goepfert

Contact : metmap@orbifly.com




SOURCES & CREDITS :

   NOAA